sensor_id;sensor_type;location;lat;lon;timestamp;P1;durP1;ratioP1;P2;durP2;ratioP2
2638;SDS011;1329;51.384;7.122;2023-02-01T00:06:52;14.37;;;8.37;;
2638;SDS011;1329;51.384;7.122;2023-02-01T00:17:15;10.13;;;6.70;;
2638;SDS011;1329;51.384;7.122;2023-02-01T00:23:41;12.63;;;6.40;;
2638;SDS011;1329;51.384;7.122;2023-02-01T00:27:37;14.37;;;6.23;;
2638;SDS011;1329;51.384;7.122;2023-02-01T00:30:13;13.33;;;5.77;;
2638;SDS011;1329;51.384;7.122;2023-02-01T00:33:05;12.33;;;5.30;;
2638;SDS011;1329;51.384;7.122;2023-02-01T00:36:08;13.07;;;5.90;;
2638;SDS011;1329;51.384;7.122;2023-02-01T00:46:01;11.40;;;5.63;;
2638;SDS011;1329;51.384;7.122;2023-02-01T00:49:21;11.27;;;5.57;;
2638;SDS011;1329;51.384;7.122;2023-02-01T00:52:14;11.53;;;5.43;;
2638;SDS011;1329;51.384;7.122;2023-02-01T00:54:55;13.07;;;6.17;;
2638;SDS011;1329;51.384;7.122;2023-02-01T01:09:32;11.33;;;5.67;;
2638;SDS011;1329;51.384;7.122;2023-02-01T01:15:28;15.37;;;7.30;;
2638;SDS011;1329;51.384;7.122;2023-02-01T01:25:08;12.37;;;7.47;;
2638;SDS011;1329;51.384;7.122;2023-02-01T01:31:15;13.10;;;7.33;;
2638;SDS011;1329;51.384;7.122;2023-02-01T01:34:23;15.33;;;8.30;;
2638;SDS011;1329;51.384;7.122;2023-02-01T01:52:23;14.83;;;7.87;;
2638;SDS011;1329;51.384;7.122;2023-02-01T01:55:55;13.40;;;8.00;;
2638;SDS011;1329;51.384;7.122;2023-02-01T01:58:53;12.50;;;6.50;;
2638;SDS011;1329;51.384;7.122;2023-02-01T02:01:57;15.13;;;7.13;;
2638;SDS011;1329;51.384;7.122;2023-02-01T02:04:26;14.13;;;7.83;;
2638;SDS011;1329;51.384;7.122;2023-02-01T02:06:54;16.33;;;7.80;;
2638;SDS011;1329;51.384;7.122;2023-02-01T02:09:25;11.70;;;7.33;;
2638;SDS011;1329;51.384;7.122;2023-02-01T02:11:52;13.13;;;6.77;;
2638;SDS011;1329;51.384;7.122;2023-02-01T02:14:19;16.07;;;6.93;;
2638;SDS011;1329;51.384;7.122;2023-02-01T02:16:54;10.63;;;5.97;;
2638;SDS011;1329;51.384;7.122;2023-02-01T02:22:57;13.03;;;5.63;;
2638;SDS011;1329;51.384;7.122;2023-02-01T02:26:05;9.80;;;5.37;;
2638;SDS011;1329;51.384;7.122;2023-02-01T02:28:57;10.97;;;5.30;;
2638;SDS011;1329;51.384;7.122;2023-02-01T02:35:05;9.37;;;4.50;;
2638;SDS011;1329;51.384;7.122;2023-02-01T02:37:40;12.37;;;4.50;;
2638;SDS011;1329;51.384;7.122;2023-02-01T02:40:13;10.53;;;4.50;;
2638;SDS011;1329;51.384;7.122;2023-02-01T02:42:47;11.80;;;4.63;;
2638;SDS011;1329;51.384;7.122;2023-02-01T02:45:43;12.43;;;4.40;;
2638;SDS011;1329;51.384;7.122;2023-02-01T02:48:34;10.07;;;4.20;;
2638;SDS011;1329;51.384;7.122;2023-02-01T02:51:11;12.40;;;4.43;;
2638;SDS011;1329;51.384;7.122;2023-02-01T02:54:00;11.17;;;4.23;;
2638;SDS011;1329;51.384;7.122;2023-02-01T02:56:49;10.40;;;4.03;;
2638;SDS011;1329;51.384;7.122;2023-02-01T02:59:37;8.07;;;3.30;;
2638;SDS011;1329;51.384;7.122;2023-02-01T03:02:24;7.90;;;3.97;;
2638;SDS011;1329;51.384;7.122;2023-02-01T03:05:11;8.97;;;3.90;;
2638;SDS011;1329;51.384;7.122;2023-02-01T03:10:42;10.73;;;4.40;;
2638;SDS011;1329;51.384;7.122;2023-02-01T03:13:17;11.20;;;4.10;;
2638;SDS011;1329;51.384;7.122;2023-02-01T03:15:53;12.13;;;4.77;;
2638;SDS011;1329;51.384;7.122;2023-02-01T03:18:28;10.33;;;4.07;;
2638;SDS011;1329;51.384;7.122;2023-02-01T03:21:05;10.97;;;4.13;;
2638;SDS011;1329;51.384;7.122;2023-02-01T03:23:38;7.97;;;3.73;;
2638;SDS011;1329;51.384;7.122;2023-02-01T03:26:07;12.37;;;4.30;;
2638;SDS011;1329;51.384;7.122;2023-02-01T03:28:37;13.97;;;4.07;;
2638;SDS011;1329;51.384;7.122;2023-02-01T03:31:09;11.30;;;4.23;;
2638;SDS011;1329;51.384;7.122;2023-02-01T03:33:36;11.27;;;3.80;;
2638;SDS011;1329;51.384;7.122;2023-02-01T03:36:12;11.03;;;3.80;;
2638;SDS011;1329;51.384;7.122;2023-02-01T03:38:48;11.67;;;3.70;;
2638;SDS011;1329;51.384;7.122;2023-02-01T03:41:23;12.00;;;4.20;;
2638;SDS011;1329;51.384;7.122;2023-02-01T03:43:55;11.77;;;3.93;;
2638;SDS011;1329;51.384;7.122;2023-02-01T03:46:30;10.70;;;3.97;;
2638;SDS011;1329;51.384;7.122;2023-02-01T03:49:00;13.50;;;4.10;;
2638;SDS011;1329;51.384;7.122;2023-02-01T03:51:31;10.97;;;4.07;;
2638;SDS011;1329;51.384;7.122;2023-02-01T03:54:01;11.63;;;4.10;;
2638;SDS011;1329;51.384;7.122;2023-02-01T03:56:29;12.57;;;4.37;;
2638;SDS011;1329;51.384;7.122;2023-02-01T03:58:58;12.60;;;4.63;;
2638;SDS011;1329;51.384;7.122;2023-02-01T04:01:26;11.03;;;3.87;;
2638;SDS011;1329;51.384;7.122;2023-02-01T04:03:55;12.13;;;4.30;;
2638;SDS011;1329;51.384;7.122;2023-02-01T04:06:23;15.70;;;4.70;;
2638;SDS011;1329;51.384;7.122;2023-02-01T04:08:51;11.37;;;4.10;;
2638;SDS011;1329;51.384;7.122;2023-02-01T04:11:19;15.53;;;5.57;;
2638;SDS011;1329;51.384;7.122;2023-02-01T04:13:46;14.40;;;4.40;;
2638;SDS011;1329;51.384;7.122;2023-02-01T04:16:13;14.47;;;4.20;;
2638;SDS011;1329;51.384;7.122;2023-02-01T04:18:40;18.07;;;4.57;;
2638;SDS011;1329;51.384;7.122;2023-02-01T04:21:07;12.73;;;4.20;;
2638;SDS011;1329;51.384;7.122;2023-02-01T04:23:33;11.67;;;4.17;;
2638;SDS011;1329;51.384;7.122;2023-02-01T04:26:01;9.23;;;4.27;;
2638;SDS011;1329;51.384;7.122;2023-02-01T04:28:31;12.83;;;5.00;;
2638;SDS011;1329;51.384;7.122;2023-02-01T04:30:58;34.47;;;14.87;;
2638;SDS011;1329;51.384;7.122;2023-02-01T04:33:25;14.70;;;5.17;;
2638;SDS011;1329;51.384;7.122;2023-02-01T04:35:52;13.87;;;4.27;;
2638;SDS011;1329;51.384;7.122;2023-02-01T04:38:19;10.30;;;3.80;;
2638;SDS011;1329;51.384;7.122;2023-02-01T04:40:47;10.23;;;4.30;;
2638;SDS011;1329;51.384;7.122;2023-02-01T04:43:15;13.37;;;4.37;;
2638;SDS011;1329;51.384;7.122;2023-02-01T04:45:47;13.50;;;4.20;;
2638;SDS011;1329;51.384;7.122;2023-02-01T04:48:14;16.47;;;4.03;;
2638;SDS011;1329;51.384;7.122;2023-02-01T04:50:42;12.23;;;4.90;;
2638;SDS011;1329;51.384;7.122;2023-02-01T04:53:12;10.80;;;4.00;;
2638;SDS011;1329;51.384;7.122;2023-02-01T04:55:39;12.13;;;4.27;;
2638;SDS011;1329;51.384;7.122;2023-02-01T04:58:06;9.00;;;4.23;;
2638;SDS011;1329;51.384;7.122;2023-02-01T05:00:33;14.23;;;4.13;;
2638;SDS011;1329;51.384;7.122;2023-02-01T05:03:02;12.70;;;4.73;;
2638;SDS011;1329;51.384;7.122;2023-02-01T05:05:29;14.10;;;4.57;;
2638;SDS011;1329;51.384;7.122;2023-02-01T05:07:56;10.03;;;3.93;;
2638;SDS011;1329;51.384;7.122;2023-02-01T05:10:23;14.33;;;4.80;;
2638;SDS011;1329;51.384;7.122;2023-02-01T05:12:50;10.73;;;4.43;;
2638;SDS011;1329;51.384;7.122;2023-02-01T05:15:33;11.67;;;4.30;;
2638;SDS011;1329;51.384;7.122;2023-02-01T05:18:02;17.60;;;5.70;;
2638;SDS011;1329;51.384;7.122;2023-02-01T05:20:29;12.87;;;4.20;;
2638;SDS011;1329;51.384;7.122;2023-02-01T05:22:59;12.00;;;4.63;;
2638;SDS011;1329;51.384;7.122;2023-02-01T05:25:26;14.90;;;4.80;;
2638;SDS011;1329;51.384;7.122;2023-02-01T05:27:52;13.63;;;4.80;;
2638;SDS011;1329;51.384;7.122;2023-02-01T05:30:19;15.27;;;4.83;;
2638;SDS011;1329;51.384;7.122;2023-02-01T05:32:48;14.27;;;4.57;;
2638;SDS011;1329;51.384;7.122;2023-02-01T05:35:17;14.17;;;4.83;;
2638;SDS011;1329;51.384;7.122;2023-02-01T05:37:44;11.97;;;4.63;;
2638;SDS011;1329;51.384;7.122;2023-02-01T05:40:11;13.67;;;4.50;;
2638;SDS011;1329;51.384;7.122;2023-02-01T05:42:38;14.57;;;4.53;;
2638;SDS011;1329;51.384;7.122;2023-02-01T05:45:06;18.97;;;5.53;;
2638;SDS011;1329;51.384;7.122;2023-02-01T05:47:34;14.53;;;5.13;;
2638;SDS011;1329;51.384;7.122;2023-02-01T05:50:01;16.20;;;4.80;;
2638;SDS011;1329;51.384;7.122;2023-02-01T05:52:30;12.80;;;5.20;;
2638;SDS011;1329;51.384;7.122;2023-02-01T05:54:57;12.80;;;4.70;;
2638;SDS011;1329;51.384;7.122;2023-02-01T05:57:24;14.37;;;4.70;;
2638;SDS011;1329;51.384;7.122;2023-02-01T05:59:51;11.60;;;4.87;;
2638;SDS011;1329;51.384;7.122;2023-02-01T06:02:17;18.50;;;5.33;;
2638;SDS011;1329;51.384;7.122;2023-02-01T06:04:45;14.87;;;5.07;;
2638;SDS011;1329;51.384;7.122;2023-02-01T06:07:12;14.87;;;4.60;;
2638;SDS011;1329;51.384;7.122;2023-02-01T06:09:40;16.23;;;4.63;;
2638;SDS011;1329;51.384;7.122;2023-02-01T06:12:07;10.93;;;4.10;;
2638;SDS011;1329;51.384;7.122;2023-02-01T06:14:33;15.47;;;4.97;;
2638;SDS011;1329;51.384;7.122;2023-02-01T06:17:02;15.73;;;5.03;;
2638;SDS011;1329;51.384;7.122;2023-02-01T06:19:30;15.90;;;4.77;;
2638;SDS011;1329;51.384;7.122;2023-02-01T06:21:57;13.27;;;4.50;;
2638;SDS011;1329;51.384;7.122;2023-02-01T06:24:24;12.27;;;4.27;;
2638;SDS011;1329;51.384;7.122;2023-02-01T06:26:52;15.80;;;4.83;;
2638;SDS011;1329;51.384;7.122;2023-02-01T06:29:19;13.33;;;4.80;;
2638;SDS011;1329;51.384;7.122;2023-02-01T06:31:46;10.63;;;4.40;;
2638;SDS011;1329;51.384;7.122;2023-02-01T06:34:13;12.00;;;4.57;;
2638;SDS011;1329;51.384;7.122;2023-02-01T06:36:39;13.23;;;4.57;;
2638;SDS011;1329;51.384;7.122;2023-02-01T06:39:06;13.83;;;5.13;;
2638;SDS011;1329;51.384;7.122;2023-02-01T06:41:33;13.80;;;4.70;;
2638;SDS011;1329;51.384;7.122;2023-02-01T06:44:01;16.80;;;5.23;;
2638;SDS011;1329;51.384;7.122;2023-02-01T06:46:28;11.70;;;4.20;;
2638;SDS011;1329;51.384;7.122;2023-02-01T06:48:55;13.73;;;4.50;;
2638;SDS011;1329;51.384;7.122;2023-02-01T06:51:23;16.77;;;5.10;;
2638;SDS011;1329;51.384;7.122;2023-02-01T06:53:51;14.37;;;4.63;;
2638;SDS011;1329;51.384;7.122;2023-02-01T06:56:18;16.10;;;4.37;;
2638;SDS011;1329;51.384;7.122;2023-02-01T06:58:45;14.80;;;4.70;;
2638;SDS011;1329;51.384;7.122;2023-02-01T07:01:14;15.17;;;4.73;;
2638;SDS011;1329;51.384;7.122;2023-02-01T07:03:42;13.27;;;4.97;;
2638;SDS011;1329;51.384;7.122;2023-02-01T07:06:13;16.67;;;5.37;;
2638;SDS011;1329;51.384;7.122;2023-02-01T07:08:40;16.77;;;5.10;;
2638;SDS011;1329;51.384;7.122;2023-02-01T07:11:10;13.03;;;4.77;;
2638;SDS011;1329;51.384;7.122;2023-02-01T07:13:39;14.40;;;4.27;;
2638;SDS011;1329;51.384;7.122;2023-02-01T07:16:07;13.27;;;4.47;;
2638;SDS011;1329;51.384;7.122;2023-02-01T07:18:38;13.73;;;4.67;;
2638;SDS011;1329;51.384;7.122;2023-02-01T07:21:05;12.47;;;4.17;;
2638;SDS011;1329;51.384;7.122;2023-02-01T07:23:32;14.90;;;4.70;;
2638;SDS011;1329;51.384;7.122;2023-02-01T07:26:00;13.90;;;4.43;;
2638;SDS011;1329;51.384;7.122;2023-02-01T07:28:29;10.70;;;4.33;;
2638;SDS011;1329;51.384;7.122;2023-02-01T07:31:01;14.63;;;4.50;;
2638;SDS011;1329;51.384;7.122;2023-02-01T07:33:29;14.57;;;4.43;;
2638;SDS011;1329;51.384;7.122;2023-02-01T07:35:57;12.87;;;4.23;;
2638;SDS011;1329;51.384;7.122;2023-02-01T07:38:26;14.90;;;4.40;;
2638;SDS011;1329;51.384;7.122;2023-02-01T07:40:56;13.60;;;4.63;;
2638;SDS011;1329;51.384;7.122;2023-02-01T07:43:24;13.63;;;4.43;;
2638;SDS011;1329;51.384;7.122;2023-02-01T07:45:52;14.93;;;4.43;;
2638;SDS011;1329;51.384;7.122;2023-02-01T07:48:20;14.13;;;4.37;;
2638;SDS011;1329;51.384;7.122;2023-02-01T07:50:48;14.17;;;4.67;;
2638;SDS011;1329;51.384;7.122;2023-02-01T07:53:24;15.57;;;5.37;;
2638;SDS011;1329;51.384;7.122;2023-02-01T07:55:51;12.00;;;4.87;;
2638;SDS011;1329;51.384;7.122;2023-02-01T07:58:18;15.13;;;5.00;;
2638;SDS011;1329;51.384;7.122;2023-02-01T08:00:45;12.87;;;5.17;;
2638;SDS011;1329;51.384;7.122;2023-02-01T08:03:29;14.83;;;4.90;;
2638;SDS011;1329;51.384;7.122;2023-02-01T08:05:57;14.70;;;5.10;;
2638;SDS011;1329;51.384;7.122;2023-02-01T08:08:24;17.37;;;5.17;;
2638;SDS011;1329;51.384;7.122;2023-02-01T08:10:51;13.23;;;4.83;;
2638;SDS011;1329;51.384;7.122;2023-02-01T08:13:23;15.03;;;4.93;;
2638;SDS011;1329;51.384;7.122;2023-02-01T08:15:50;16.40;;;4.77;;
2638;SDS011;1329;51.384;7.122;2023-02-01T08:18:16;14.90;;;5.17;;
2638;SDS011;1329;51.384;7.122;2023-02-01T08:20:43;15.73;;;5.17;;
2638;SDS011;1329;51.384;7.122;2023-02-01T08:23:13;14.57;;;5.43;;
2638;SDS011;1329;51.384;7.122;2023-02-01T08:25:40;16.23;;;5.27;;
2638;SDS011;1329;51.384;7.122;2023-02-01T08:28:07;15.70;;;5.67;;
2638;SDS011;1329;51.384;7.122;2023-02-01T08:30:35;13.70;;;5.10;;
2638;SDS011;1329;51.384;7.122;2023-02-01T08:33:03;13.67;;;5.37;;
2638;SDS011;1329;51.384;7.122;2023-02-01T08:35:31;15.97;;;5.13;;
2638;SDS011;1329;51.384;7.122;2023-02-01T08:37:58;18.30;;;5.50;;
2638;SDS011;1329;51.384;7.122;2023-02-01T08:40:26;13.40;;;5.13;;
2638;SDS011;1329;51.384;7.122;2023-02-01T08:42:54;13.20;;;5.30;;
2638;SDS011;1329;51.384;7.122;2023-02-01T08:45:21;14.70;;;5.87;;
2638;SDS011;1329;51.384;7.122;2023-02-01T08:47:51;18.67;;;6.50;;
2638;SDS011;1329;51.384;7.122;2023-02-01T08:50:18;15.73;;;6.00;;
2638;SDS011;1329;51.384;7.122;2023-02-01T08:52:47;16.20;;;6.20;;
2638;SDS011;1329;51.384;7.122;2023-02-01T08:55:14;17.90;;;6.23;;
2638;SDS011;1329;51.384;7.122;2023-02-01T08:57:43;17.53;;;5.60;;
2638;SDS011;1329;51.384;7.122;2023-02-01T09:00:11;16.53;;;6.10;;
2638;SDS011;1329;51.384;7.122;2023-02-01T09:02:40;17.40;;;6.07;;
2638;SDS011;1329;51.384;7.122;2023-02-01T09:05:07;16.60;;;5.97;;
2638;SDS011;1329;51.384;7.122;2023-02-01T09:07:35;18.13;;;6.43;;
2638;SDS011;1329;51.384;7.122;2023-02-01T09:10:03;15.60;;;5.87;;
2638;SDS011;1329;51.384;7.122;2023-02-01T09:12:32;20.97;;;6.77;;
2638;SDS011;1329;51.384;7.122;2023-02-01T09:15:02;15.97;;;6.27;;
2638;SDS011;1329;51.384;7.122;2023-02-01T09:17:32;18.77;;;7.03;;
2638;SDS011;1329;51.384;7.122;2023-02-01T09:19:59;15.77;;;5.87;;
2638;SDS011;1329;51.384;7.122;2023-02-01T09:22:26;13.43;;;5.60;;
2638;SDS011;1329;51.384;7.122;2023-02-01T09:24:53;20.20;;;6.43;;
2638;SDS011;1329;51.384;7.122;2023-02-01T09:27:20;16.67;;;5.93;;
2638;SDS011;1329;51.384;7.122;2023-02-01T09:29:47;15.90;;;6.50;;
2638;SDS011;1329;51.384;7.122;2023-02-01T09:32:18;14.37;;;6.53;;
2638;SDS011;1329;51.384;7.122;2023-02-01T09:34:46;14.87;;;5.83;;
2638;SDS011;1329;51.384;7.122;2023-02-01T09:37:12;14.03;;;5.87;;
2638;SDS011;1329;51.384;7.122;2023-02-01T09:39:40;14.33;;;5.70;;
2638;SDS011;1329;51.384;7.122;2023-02-01T09:42:12;14.03;;;5.23;;
2638;SDS011;1329;51.384;7.122;2023-02-01T09:44:50;12.90;;;5.27;;
2638;SDS011;1329;51.384;7.122;2023-02-01T09:47:38;13.27;;;5.40;;
2638;SDS011;1329;51.384;7.122;2023-02-01T09:50:14;11.63;;;5.93;;
2638;SDS011;1329;51.384;7.122;2023-02-01T09:52:45;14.47;;;5.80;;
2638;SDS011;1329;51.384;7.122;2023-02-01T09:55:21;14.20;;;6.10;;
2638;SDS011;1329;51.384;7.122;2023-02-01T09:58:00;15.93;;;5.87;;
2638;SDS011;1329;51.384;7.122;2023-02-01T10:00:34;10.57;;;5.40;;
2638;SDS011;1329;51.384;7.122;2023-02-01T10:03:04;13.80;;;6.00;;
2638;SDS011;1329;51.384;7.122;2023-02-01T10:05:39;15.67;;;5.73;;
2638;SDS011;1329;51.384;7.122;2023-02-01T10:08:26;14.73;;;5.33;;
2638;SDS011;1329;51.384;7.122;2023-02-01T10:11:04;16.47;;;6.17;;
2638;SDS011;1329;51.384;7.122;2023-02-01T10:13:48;13.37;;;5.70;;
2638;SDS011;1329;51.384;7.122;2023-02-01T10:16:24;14.27;;;5.57;;
2638;SDS011;1329;51.384;7.122;2023-02-01T10:19:10;13.87;;;5.10;;
2638;SDS011;1329;51.384;7.122;2023-02-01T10:22:00;14.17;;;5.53;;
2638;SDS011;1329;51.384;7.122;2023-02-01T10:24:37;15.10;;;5.30;;
2638;SDS011;1329;51.384;7.122;2023-02-01T10:27:11;14.93;;;5.80;;
2638;SDS011;1329;51.384;7.122;2023-02-01T10:29:43;16.37;;;5.83;;
2638;SDS011;1329;51.384;7.122;2023-02-01T10:32:14;12.80;;;5.07;;
2638;SDS011;1329;51.384;7.122;2023-02-01T10:34:46;17.70;;;5.37;;
2638;SDS011;1329;51.384;7.122;2023-02-01T10:37:22;16.57;;;4.97;;
2638;SDS011;1329;51.384;7.122;2023-02-01T10:39:54;13.23;;;5.97;;
2638;SDS011;1329;51.384;7.122;2023-02-01T10:42:24;16.80;;;5.37;;
2638;SDS011;1329;51.384;7.122;2023-02-01T10:44:54;15.80;;;4.83;;
2638;SDS011;1329;51.384;7.122;2023-02-01T10:47:27;14.53;;;5.40;;
2638;SDS011;1329;51.384;7.122;2023-02-01T10:49:57;14.90;;;6.00;;
2638;SDS011;1329;51.384;7.122;2023-02-01T10:52:34;15.60;;;5.70;;
2638;SDS011;1329;51.384;7.122;2023-02-01T10:58:05;13.27;;;5.33;;
2638;SDS011;1329;51.384;7.122;2023-02-01T11:00:36;15.20;;;5.70;;
2638;SDS011;1329;51.384;7.122;2023-02-01T11:06:11;11.70;;;4.80;;
2638;SDS011;1329;51.384;7.122;2023-02-01T11:08:46;12.30;;;5.10;;
2638;SDS011;1329;51.384;7.122;2023-02-01T11:11:15;11.70;;;4.87;;
2638;SDS011;1329;51.384;7.122;2023-02-01T11:13:42;11.30;;;4.97;;
2638;SDS011;1329;51.384;7.122;2023-02-01T11:16:11;11.67;;;4.40;;
2638;SDS011;1329;51.384;7.122;2023-02-01T11:18:40;12.43;;;5.20;;
2638;SDS011;1329;51.384;7.122;2023-02-01T11:21:08;12.03;;;5.03;;
2638;SDS011;1329;51.384;7.122;2023-02-01T11:23:41;11.70;;;5.67;;
2638;SDS011;1329;51.384;7.122;2023-02-01T11:26:12;11.67;;;5.43;;
2638;SDS011;1329;51.384;7.122;2023-02-01T11:28:44;13.57;;;5.60;;
2638;SDS011;1329;51.384;7.122;2023-02-01T11:31:18;10.60;;;4.63;;
2638;SDS011;1329;51.384;7.122;2023-02-01T11:33:48;14.63;;;5.33;;
2638;SDS011;1329;51.384;7.122;2023-02-01T11:36:22;10.90;;;4.97;;
2638;SDS011;1329;51.384;7.122;2023-02-01T11:38:53;14.27;;;4.80;;
2638;SDS011;1329;51.384;7.122;2023-02-01T11:41:35;10.47;;;4.67;;
2638;SDS011;1329;51.384;7.122;2023-02-01T11:44:19;14.27;;;4.40;;
2638;SDS011;1329;51.384;7.122;2023-02-01T11:46:48;10.43;;;5.00;;
2638;SDS011;1329;51.384;7.122;2023-02-01T11:49:20;10.63;;;4.13;;
2638;SDS011;1329;51.384;7.122;2023-02-01T11:51:57;12.23;;;4.53;;
2638;SDS011;1329;51.384;7.122;2023-02-01T11:54:40;10.43;;;4.57;;
2638;SDS011;1329;51.384;7.122;2023-02-01T11:57:32;12.53;;;4.37;;
2638;SDS011;1329;51.384;7.122;2023-02-01T12:00:20;12.50;;;3.93;;
2638;SDS011;1329;51.384;7.122;2023-02-01T12:03:11;11.80;;;4.37;;
2638;SDS011;1329;51.384;7.122;2023-02-01T12:05:58;10.83;;;4.27;;
2638;SDS011;1329;51.384;7.122;2023-02-01T12:08:38;12.57;;;4.93;;
2638;SDS011;1329;51.384;7.122;2023-02-01T12:11:30;11.47;;;4.47;;
2638;SDS011;1329;51.384;7.122;2023-02-01T12:14:14;14.10;;;5.37;;
2638;SDS011;1329;51.384;7.122;2023-02-01T12:16:58;13.27;;;4.57;;
2638;SDS011;1329;51.384;7.122;2023-02-01T12:19:57;13.57;;;5.00;;
2638;SDS011;1329;51.384;7.122;2023-02-01T12:22:40;9.73;;;5.03;;
2638;SDS011;1329;51.384;7.122;2023-02-01T12:25:30;10.80;;;4.70;;
2638;SDS011;1329;51.384;7.122;2023-02-01T12:28:23;11.20;;;5.00;;
2638;SDS011;1329;51.384;7.122;2023-02-01T12:31:17;13.60;;;5.20;;
2638;SDS011;1329;51.384;7.122;2023-02-01T12:34:23;11.47;;;4.83;;
2638;SDS011;1329;51.384;7.122;2023-02-01T12:37:09;13.50;;;4.87;;
2638;SDS011;1329;51.384;7.122;2023-02-01T12:39:52;14.63;;;5.10;;
2638;SDS011;1329;51.384;7.122;2023-02-01T12:42:32;12.60;;;4.53;;
2638;SDS011;1329;51.384;7.122;2023-02-01T12:45:09;12.73;;;4.60;;
2638;SDS011;1329;51.384;7.122;2023-02-01T12:47:41;11.37;;;4.63;;
2638;SDS011;1329;51.384;7.122;2023-02-01T12:50:15;10.30;;;4.63;;
2638;SDS011;1329;51.384;7.122;2023-02-01T12:52:47;10.97;;;4.40;;
2638;SDS011;1329;51.384;7.122;2023-02-01T12:55:17;11.27;;;4.03;;
2638;SDS011;1329;51.384;7.122;2023-02-01T12:57:51;13.63;;;4.73;;
2638;SDS011;1329;51.384;7.122;2023-02-01T13:00:23;11.07;;;4.07;;
2638;SDS011;1329;51.384;7.122;2023-02-01T13:02:59;11.17;;;4.27;;
2638;SDS011;1329;51.384;7.122;2023-02-01T13:05:34;10.90;;;4.37;;
2638;SDS011;1329;51.384;7.122;2023-02-01T13:08:14;11.03;;;3.93;;
2638;SDS011;1329;51.384;7.122;2023-02-01T13:10:46;11.20;;;3.97;;
2638;SDS011;1329;51.384;7.122;2023-02-01T13:13:20;12.40;;;4.13;;
2638;SDS011;1329;51.384;7.122;2023-02-01T13:15:56;9.23;;;3.90;;
2638;SDS011;1329;51.384;7.122;2023-02-01T13:18:31;13.77;;;4.27;;
2638;SDS011;1329;51.384;7.122;2023-02-01T13:21:04;12.87;;;4.53;;
2638;SDS011;1329;51.384;7.122;2023-02-01T13:23:35;10.70;;;4.07;;
2638;SDS011;1329;51.384;7.122;2023-02-01T13:26:04;11.13;;;4.20;;
2638;SDS011;1329;51.384;7.122;2023-02-01T13:28:36;10.10;;;3.93;;
2638;SDS011;1329;51.384;7.122;2023-02-01T13:31:15;8.27;;;3.90;;
2638;SDS011;1329;51.384;7.122;2023-02-01T13:33:59;8.80;;;4.10;;
2638;SDS011;1329;51.384;7.122;2023-02-01T13:36:58;8.13;;;3.53;;
2638;SDS011;1329;51.384;7.122;2023-02-01T13:42:30;9.70;;;3.87;;
2638;SDS011;1329;51.384;7.122;2023-02-01T13:45:03;9.73;;;3.57;;
2638;SDS011;1329;51.384;7.122;2023-02-01T13:47:39;8.90;;;3.70;;
2638;SDS011;1329;51.384;7.122;2023-02-01T13:50:12;11.17;;;4.67;;
2638;SDS011;1329;51.384;7.122;2023-02-01T13:52:51;9.73;;;4.10;;
2638;SDS011;1329;51.384;7.122;2023-02-01T13:55:27;8.53;;;3.33;;
2638;SDS011;1329;51.384;7.122;2023-02-01T13:58:02;12.07;;;5.60;;
2638;SDS011;1329;51.384;7.122;2023-02-01T14:00:38;12.77;;;4.60;;
2638;SDS011;1329;51.384;7.122;2023-02-01T14:03:09;13.17;;;4.93;;
2638;SDS011;1329;51.384;7.122;2023-02-01T14:06:00;9.87;;;3.83;;
2638;SDS011;1329;51.384;7.122;2023-02-01T14:08:37;11.67;;;3.30;;
2638;SDS011;1329;51.384;7.122;2023-02-01T14:23:17;10.30;;;3.40;;
2638;SDS011;1329;51.384;7.122;2023-02-01T14:26:00;12.87;;;3.63;;
2638;SDS011;1329;51.384;7.122;2023-02-01T14:28:42;11.00;;;3.40;;
2638;SDS011;1329;51.384;7.122;2023-02-01T14:31:14;12.70;;;4.00;;
2638;SDS011;1329;51.384;7.122;2023-02-01T14:33:54;12.83;;;3.83;;
2638;SDS011;1329;51.384;7.122;2023-02-01T14:36:25;14.27;;;3.70;;
2638;SDS011;1329;51.384;7.122;2023-02-01T14:38:53;10.97;;;3.40;;
2638;SDS011;1329;51.384;7.122;2023-02-01T14:41:29;9.43;;;3.60;;
2638;SDS011;1329;51.384;7.122;2023-02-01T14:47:07;11.87;;;3.47;;
2638;SDS011;1329;51.384;7.122;2023-02-01T14:49:59;10.93;;;3.43;;
2638;SDS011;1329;51.384;7.122;2023-02-01T14:52:37;13.83;;;3.80;;
2638;SDS011;1329;51.384;7.122;2023-02-01T14:55:09;10.20;;;3.27;;
2638;SDS011;1329;51.384;7.122;2023-02-01T14:57:42;9.90;;;2.90;;
2638;SDS011;1329;51.384;7.122;2023-02-01T15:00:16;12.03;;;3.30;;
2638;SDS011;1329;51.384;7.122;2023-02-01T15:02:48;11.83;;;3.40;;
2638;SDS011;1329;51.384;7.122;2023-02-01T15:05:31;10.07;;;3.20;;
2638;SDS011;1329;51.384;7.122;2023-02-01T15:08:03;11.03;;;3.37;;
2638;SDS011;1329;51.384;7.122;2023-02-01T15:10:39;10.43;;;3.10;;
2638;SDS011;1329;51.384;7.122;2023-02-01T15:13:18;10.67;;;3.40;;
2638;SDS011;1329;51.384;7.122;2023-02-01T15:16:00;7.77;;;3.13;;
2638;SDS011;1329;51.384;7.122;2023-02-01T15:18:29;11.80;;;3.87;;
2638;SDS011;1329;51.384;7.122;2023-02-01T15:20:58;11.23;;;3.10;;
2638;SDS011;1329;51.384;7.122;2023-02-01T15:23:27;10.03;;;3.00;;
2638;SDS011;1329;51.384;7.122;2023-02-01T15:25:54;10.70;;;3.10;;
2638;SDS011;1329;51.384;7.122;2023-02-01T15:28:22;8.73;;;3.00;;
2638;SDS011;1329;51.384;7.122;2023-02-01T15:30:52;8.67;;;3.37;;
2638;SDS011;1329;51.384;7.122;2023-02-01T15:33:21;10.03;;;3.40;;
2638;SDS011;1329;51.384;7.122;2023-02-01T15:35:49;11.00;;;3.20;;
2638;SDS011;1329;51.384;7.122;2023-02-01T15:41:05;11.03;;;3.30;;
2638;SDS011;1329;51.384;7.122;2023-02-01T15:43:39;9.47;;;3.43;;
2638;SDS011;1329;51.384;7.122;2023-02-01T15:46:10;10.60;;;3.67;;
2638;SDS011;1329;51.384;7.122;2023-02-01T15:48:45;14.10;;;3.40;;
2638;SDS011;1329;51.384;7.122;2023-02-01T15:51:15;10.40;;;3.50;;
2638;SDS011;1329;51.384;7.122;2023-02-01T15:53:48;11.13;;;3.63;;
2638;SDS011;1329;51.384;7.122;2023-02-01T15:56:21;12.23;;;3.40;;
2638;SDS011;1329;51.384;7.122;2023-02-01T15:58:55;10.20;;;3.30;;
2638;SDS011;1329;51.384;7.122;2023-02-01T16:01:24;13.90;;;3.80;;
2638;SDS011;1329;51.384;7.122;2023-02-01T16:04:01;10.17;;;3.30;;
2638;SDS011;1329;51.384;7.122;2023-02-01T16:06:32;14.33;;;3.93;;
2638;SDS011;1329;51.384;7.122;2023-02-01T16:09:02;9.90;;;3.50;;
2638;SDS011;1329;51.384;7.122;2023-02-01T16:11:45;9.47;;;3.30;;
2638;SDS011;1329;51.384;7.122;2023-02-01T16:14:20;11.60;;;3.40;;
2638;SDS011;1329;51.384;7.122;2023-02-01T16:16:47;12.53;;;4.10;;
2638;SDS011;1329;51.384;7.122;2023-02-01T16:19:14;11.40;;;3.63;;
2638;SDS011;1329;51.384;7.122;2023-02-01T16:21:40;14.33;;;3.67;;
2638;SDS011;1329;51.384;7.122;2023-02-01T16:24:09;10.67;;;3.53;;
2638;SDS011;1329;51.384;7.122;2023-02-01T16:26:36;9.23;;;3.50;;
2638;SDS011;1329;51.384;7.122;2023-02-01T16:29:03;9.20;;;3.40;;
2638;SDS011;1329;51.384;7.122;2023-02-01T16:31:31;9.13;;;3.37;;
2638;SDS011;1329;51.384;7.122;2023-02-01T16:34:01;11.93;;;3.77;;
2638;SDS011;1329;51.384;7.122;2023-02-01T16:36:28;10.63;;;3.70;;
2638;SDS011;1329;51.384;7.122;2023-02-01T16:38:55;14.37;;;3.97;;
2638;SDS011;1329;51.384;7.122;2023-02-01T16:41:24;11.60;;;3.87;;
2638;SDS011;1329;51.384;7.122;2023-02-01T16:43:53;9.57;;;4.13;;
2638;SDS011;1329;51.384;7.122;2023-02-01T16:46:22;9.20;;;3.80;;
2638;SDS011;1329;51.384;7.122;2023-02-01T16:48:54;12.43;;;4.20;;
2638;SDS011;1329;51.384;7.122;2023-02-01T16:51:24;10.80;;;3.63;;
2638;SDS011;1329;51.384;7.122;2023-02-01T16:53:57;14.80;;;4.80;;
2638;SDS011;1329;51.384;7.122;2023-02-01T16:56:28;16.53;;;3.67;;
2638;SDS011;1329;51.384;7.122;2023-02-01T16:58:57;14.63;;;4.33;;
2638;SDS011;1329;51.384;7.122;2023-02-01T17:01:24;8.93;;;3.30;;
2638;SDS011;1329;51.384;7.122;2023-02-01T17:03:52;8.87;;;3.73;;
2638;SDS011;1329;51.384;7.122;2023-02-01T17:06:19;14.20;;;4.20;;
2638;SDS011;1329;51.384;7.122;2023-02-01T17:08:49;14.30;;;4.20;;
2638;SDS011;1329;51.384;7.122;2023-02-01T17:11:20;12.20;;;4.10;;
2638;SDS011;1329;51.384;7.122;2023-02-01T17:13:48;10.97;;;3.93;;
2638;SDS011;1329;51.384;7.122;2023-02-01T17:16:19;10.43;;;3.63;;
2638;SDS011;1329;51.384;7.122;2023-02-01T17:18:52;11.10;;;4.17;;
2638;SDS011;1329;51.384;7.122;2023-02-01T17:21:34;12.60;;;4.60;;
2638;SDS011;1329;51.384;7.122;2023-02-01T17:24:09;11.73;;;4.40;;